createdAt,value
2022-10-23T00:04:51.817Z,9.8
2022-10-23T00:14:52.389Z,9.7
2022-10-23T00:24:52.956Z,9.7
2022-10-23T00:34:53.944Z,9.5
2022-10-23T00:54:55.336Z,9.3
2022-10-23T01:04:56.074Z,9.2
2022-10-23T01:34:58.965Z,9.1
2022-10-23T01:45:00.029Z,9
2022-10-23T02:05:00.441Z,9
2022-10-23T02:15:00.646Z,8.9
2022-10-23T02:25:00.837Z,8.8
2022-10-23T02:35:01.777Z,8.9
2022-10-23T02:45:02.433Z,9
2022-10-23T02:55:02.801Z,8.9
2022-10-23T03:05:03.811Z,9
2022-10-23T03:25:05.032Z,8.8
2022-10-23T03:35:06.045Z,8.8
2022-10-23T03:45:06.355Z,8.8
2022-10-23T03:55:07.048Z,8.9
2022-10-23T04:15:07.875Z,9
2022-10-23T04:35:09.290Z,9.1
2022-10-23T04:45:10.260Z,9.2
2022-10-23T04:55:10.838Z,9.2
2022-10-23T05:05:11.783Z,9.4
2022-10-23T05:25:13.405Z,9.6
2022-10-23T05:35:14.019Z,9.7
2022-10-23T05:45:14.866Z,9.8
2022-10-23T05:55:15.114Z,9.9
2022-10-23T06:05:16.175Z,9.8
2022-10-23T06:25:16.869Z,9.8
2022-10-23T06:35:17.783Z,9.9
2022-10-23T06:45:18.173Z,10
2022-10-23T06:56:22.393Z,10.2
2022-10-23T07:05:19.431Z,10.3
2022-10-23T07:15:19.830Z,10.5
2022-10-23T07:25:20.151Z,10.6
2022-10-23T07:35:20.762Z,10.8
2022-10-23T07:45:21.494Z,10.9
2022-10-23T07:55:22.415Z,11.1
2022-10-23T08:45:25.847Z,11.9
2022-10-23T09:05:27.536Z,12.5
2022-10-23T09:25:29.040Z,13.3
2022-10-23T09:45:30.270Z,13.9
2022-10-23T10:05:30.893Z,14.4
2022-10-23T10:35:32.634Z,15.2
2022-10-23T10:45:32.946Z,15.3
2022-10-23T11:05:34.071Z,15.8
2022-10-23T11:15:34.444Z,16
2022-10-23T12:05:37.250Z,16.6
2022-10-23T12:15:38.274Z,16.9
2022-10-23T12:25:39.344Z,17.1
2022-10-23T12:35:40.004Z,17.5
2022-10-23T12:45:40.199Z,18.4
2022-10-23T12:55:40.818Z,18.6
2022-10-23T13:05:41.264Z,18.7
2022-10-23T13:15:41.814Z,18.9
2022-10-23T13:25:42.505Z,19.1
2022-10-23T13:35:43.436Z,19
2022-10-23T13:45:44.263Z,19
2022-10-23T14:15:45.753Z,18.9
2022-10-23T14:55:47.718Z,19.1
2022-10-23T15:05:47.952Z,19
2022-10-23T15:15:48.749Z,18.8
2022-10-23T15:35:50.178Z,17.8
2022-10-23T15:45:51.153Z,17.9
2022-10-23T15:55:51.266Z,17.8
2022-10-23T16:05:51.991Z,17.9
2022-10-23T16:15:52.308Z,17.9
2022-10-23T16:45:54.587Z,16.9
2022-10-23T16:56:01.211Z,16.9
2022-10-23T17:26:02.378Z,16.6
2022-10-23T17:36:03.286Z,16.4
2022-10-23T17:46:03.719Z,16.4
2022-10-23T17:56:03.881Z,16.4
2022-10-23T18:06:04.796Z,16.3
2022-10-23T18:16:05.806Z,16.3
2022-10-23T18:26:06.401Z,16.2
2022-10-23T18:36:07.477Z,16.2
2022-10-23T18:46:08.041Z,16.1
2022-10-23T18:56:08.346Z,16
2022-10-23T19:06:09.068Z,15.8
2022-10-23T19:16:09.961Z,15.7
2022-10-23T19:26:10.729Z,15.6
2022-10-23T19:36:14.240Z,15.6
2022-10-23T19:46:12.278Z,15.4
2022-10-23T19:56:12.393Z,15.3
2022-10-23T20:06:13.005Z,15.2
2022-10-23T20:16:14.199Z,15.1
2022-10-23T20:46:15.463Z,15.3
2022-10-23T21:06:17.399Z,15.6
2022-10-23T21:16:18.372Z,15.9
2022-10-23T21:26:18.794Z,16.1
2022-10-23T21:36:19.115Z,16
2022-10-23T21:46:19.377Z,15.8
2022-10-23T21:56:20.280Z,15.6
2022-10-23T22:06:20.697Z,15.5
2022-10-23T22:16:21.012Z,15.2
2022-10-23T22:26:21.741Z,14.7
2022-10-23T22:36:22.281Z,14.2
2022-10-23T22:46:22.629Z,13.9
2022-10-23T22:56:23.540Z,14.1
2022-10-23T23:06:24.021Z,13.8
2022-10-23T23:16:25.021Z,13.9
2022-10-23T23:26:25.574Z,14.3
2022-10-23T23:36:25.713Z,14.3
2022-10-23T23:46:26.292Z,14.3
2022-10-23T23:56:26.925Z,14.3
